createdAt,value
2022-09-26T08:49:38.405Z,12.10
2022-09-26T08:52:23.608Z,12.20
2022-09-26T08:54:52.722Z,12.20
2022-09-26T08:57:38.775Z,12.20
2022-09-26T09:00:16.132Z,12.30
2022-09-26T09:03:05.363Z,12.30
2022-09-26T09:05:37.023Z,12.40
2022-09-26T09:08:06.378Z,12.50
2022-09-26T09:10:54.933Z,12.60
2022-09-26T09:14:10.805Z,12.60
2022-09-26T09:16:40.805Z,12.70
2022-09-26T09:19:38.678Z,12.70
2022-09-26T09:22:43.469Z,12.90
2022-09-26T09:25:28.620Z,13.00
2022-09-26T09:28:08.665Z,13.20
2022-09-26T09:30:41.605Z,13.30
2022-09-26T09:33:40.025Z,13.30
2022-09-26T09:36:11.621Z,13.30
2022-09-26T09:38:41.752Z,13.20
2022-09-26T09:41:35.111Z,13.20
2022-09-26T09:44:28.984Z,13.20
2022-09-26T09:46:56.251Z,13.20
2022-09-26T09:49:24.468Z,13.20
2022-09-26T11:17:02.233Z,15.60
2022-09-26T12:58:05.670Z,14.70
2022-09-26T13:00:44.255Z,14.80
2022-09-26T13:03:26.548Z,14.80
2022-09-26T13:06:15.211Z,14.70
2022-09-26T13:09:16.394Z,14.60
2022-09-26T13:30:32.875Z,14.10
2022-09-26T18:52:54.977Z,12.00
2022-09-26T18:55:26.760Z,12.40
2022-09-26T18:57:53.999Z,12.20
2022-09-26T19:00:21.229Z,12.10
2022-09-26T19:02:49.104Z,12.10
2022-09-26T19:05:17.009Z,12.00
2022-09-26T19:07:44.583Z,12.00
2022-09-26T19:10:17.109Z,12.00
2022-09-26T19:12:44.496Z,12.00
2022-09-26T19:15:15.565Z,11.90
2022-09-26T19:17:42.940Z,12.00
2022-09-26T19:20:10.413Z,11.90
2022-09-26T19:22:37.690Z,11.90
2022-09-26T19:25:06.193Z,11.90
2022-09-26T19:27:44.259Z,11.90
2022-09-26T19:30:13.892Z,11.90
2022-09-26T19:32:44.581Z,11.90
2022-09-26T19:35:21.336Z,11.90
2022-09-26T19:37:48.997Z,11.90
2022-09-26T19:40:18.361Z,11.90
2022-09-26T19:42:45.897Z,11.90
2022-09-26T19:45:14.804Z,11.80
2022-09-26T19:47:45.889Z,11.80
2022-09-26T19:50:25.599Z,11.80
2022-09-26T19:52:55.328Z,11.80
2022-09-26T19:55:25.010Z,11.80
2022-09-26T19:58:00.094Z,11.80
2022-09-26T20:00:27.391Z,11.80
2022-09-26T20:02:54.807Z,11.80
2022-09-26T20:05:24.838Z,11.70
2022-09-26T20:07:52.431Z,11.70
2022-09-26T20:10:23.816Z,11.60
2022-09-26T20:12:51.205Z,11.60
2022-09-26T20:15:19.448Z,11.60
2022-09-26T20:17:47.371Z,11.50
2022-09-26T20:20:24.071Z,11.50
2022-09-26T20:22:54.962Z,11.40
2022-09-26T20:25:26.968Z,11.40
2022-09-26T20:27:55.715Z,11.30
2022-09-26T20:30:23.421Z,11.40
2022-09-26T20:32:50.612Z,11.30
2022-09-26T20:35:17.875Z,11.30
2022-09-26T20:37:45.130Z,11.20
2022-09-26T20:40:20.168Z,11.20
2022-09-26T20:42:50.925Z,11.20
2022-09-26T20:45:22.305Z,11.20
2022-09-26T20:47:49.526Z,11.20
2022-09-26T20:50:19.152Z,11.30
2022-09-26T20:52:46.626Z,11.30
2022-09-26T20:55:15.070Z,11.40
2022-09-26T20:57:42.576Z,11.40
2022-09-26T21:00:17.761Z,11.50
